createdAt,value
2022-10-08T00:00:12.259Z,100650.21
2022-10-08T00:03:03.623Z,100650.98
2022-10-08T00:05:40.437Z,100643.49
2022-10-08T00:08:10.571Z,100640.73
2022-10-08T00:10:39.809Z,100639.41
2022-10-08T00:13:14.842Z,100633.77
2022-10-08T00:15:44.012Z,100632.98
2022-10-08T00:18:17.643Z,100630.43
2022-10-08T00:20:50.359Z,100627.46
2022-10-08T00:23:19.594Z,100626.69
2022-10-08T00:25:48.627Z,100623.31
2022-10-08T00:28:17.737Z,100619.98
2022-10-08T00:30:48.366Z,100623.07
2022-10-08T00:33:17.636Z,100622.92
2022-10-08T00:35:49.828Z,100618.16
2022-10-08T00:38:23.234Z,100616.02
2022-10-08T00:40:55.161Z,100619.75
2022-10-08T00:43:48.480Z,100616.02
2022-10-08T00:46:31.549Z,100608.20
2022-10-08T00:49:17.934Z,100603.52
2022-10-08T00:51:57.397Z,100605.36
2022-10-08T00:54:26.515Z,100599.27
2022-10-08T00:56:55.590Z,100597.04
2022-10-08T00:59:24.812Z,100591.48
2022-10-08T01:01:54.295Z,100589.67
2022-10-08T01:04:26.771Z,100590.23
2022-10-08T01:07:03.850Z,100588.64
2022-10-08T01:10:09.903Z,100589.77
2022-10-08T01:13:19.685Z,100587.41
2022-10-08T01:16:01.108Z,100587.93
2022-10-08T01:19:24.336Z,100587.61
2022-10-08T01:22:27.757Z,100587.35
2022-10-08T01:25:30.822Z,100583.02
2022-10-08T01:28:39.251Z,100586.14
2022-10-08T01:31:19.277Z,100587.01
2022-10-08T01:34:10.146Z,100584.36
2022-10-08T01:36:47.422Z,100587.54
2022-10-08T01:39:26.209Z,100583.92
2022-10-08T01:42:02.605Z,100578.59
2022-10-08T01:45:09.908Z,100577.15
2022-10-08T01:47:45.065Z,100579.03
2022-10-08T01:50:20.464Z,100579.11
2022-10-08T01:52:59.635Z,100578.29
2022-10-08T01:55:37.419Z,100576.23
2022-10-08T01:58:12.667Z,100572.31
2022-10-08T02:01:27.995Z,100573.40
2022-10-08T02:04:18.134Z,100570.66
2022-10-08T02:06:55.814Z,100570.23
2022-10-08T02:09:29.375Z,100569.55
2022-10-08T02:11:58.312Z,100570.04
2022-10-08T02:14:29.603Z,100568.45
2022-10-08T02:17:35.933Z,100562.81
2022-10-08T02:20:47.924Z,100560.77
2022-10-08T02:24:02.906Z,100559.67
2022-10-08T02:26:42.731Z,100558.26
2022-10-08T02:29:20.890Z,100557.39
2022-10-08T02:32:03.231Z,100555.29
2022-10-08T02:34:45.657Z,100550.27
2022-10-08T02:37:22.963Z,100551.55
2022-10-08T02:40:00.082Z,100554.86
2022-10-08T02:42:32.783Z,100551.49
2022-10-08T02:45:19.251Z,100550.19
2022-10-08T02:47:56.955Z,100546.89
2022-10-08T02:50:29.077Z,100548.77
2022-10-08T02:52:59.036Z,100547.71
2022-10-08T02:55:41.899Z,100548.14
2022-10-08T02:58:12.805Z,100547.95
2022-10-08T03:01:01.338Z,100546.38
2022-10-08T03:03:56.113Z,100550.32
2022-10-08T03:06:31.573Z,100549.48
2022-10-08T03:09:02.379Z,100548.52
2022-10-08T03:11:35.881Z,100546.86
2022-10-08T03:14:13.891Z,100548.52
2022-10-08T03:16:46.850Z,100548.52
2022-10-08T03:19:18.750Z,100545.38
2022-10-08T03:21:52.746Z,100544.51
2022-10-08T03:24:22.206Z,100543.65
2022-10-08T03:26:53.504Z,100545.20
2022-10-08T03:29:22.711Z,100544.92
2022-10-08T03:31:51.742Z,100543.14
2022-10-08T03:34:20.810Z,100542.15
2022-10-08T03:36:51.140Z,100541.65
2022-10-08T03:39:22.740Z,100538.59
2022-10-08T03:41:51.858Z,100536.09
2022-10-08T03:44:20.860Z,100531.96
2022-10-08T03:46:49.817Z,100532.40
2022-10-08T03:49:18.815Z,100531.93
2022-10-08T03:51:47.952Z,100531.84
2022-10-08T03:54:16.961Z,100529.81
2022-10-08T03:56:46.051Z,100533.55
2022-10-08T03:59:14.951Z,100535.12
2022-10-08T04:01:44.106Z,100535.47
2022-10-08T04:04:20.708Z,100534.36
2022-10-08T04:06:53.784Z,100533.40
2022-10-08T04:09:22.844Z,100531.50
2022-10-08T04:11:54.063Z,100533.47
2022-10-08T04:14:23.437Z,100535.66
2022-10-08T04:16:55.488Z,100533.02
2022-10-08T04:19:26.372Z,100531.33
2022-10-08T04:21:55.423Z,100531.97
2022-10-08T04:24:26.591Z,100537.86
2022-10-08T04:26:57.949Z,100534.79
2022-10-08T04:29:29.496Z,100530.92
2022-10-08T04:31:58.635Z,100531.57
2022-10-08T04:34:30.195Z,100533.05
2022-10-08T04:37:04.713Z,100533.40
2022-10-08T04:39:34.133Z,100527.68
2022-10-08T04:42:05.997Z,100528.52
2022-10-08T04:44:36.990Z,100530.18
2022-10-08T04:47:06.165Z,100530.23
2022-10-08T04:49:35.351Z,100529.45
2022-10-08T04:52:04.585Z,100530.90
2022-10-08T04:54:33.714Z,100530.95
2022-10-08T04:57:02.917Z,100529.44
2022-10-08T04:59:32.092Z,100527.08
2022-10-08T05:02:01.339Z,100527.95
2022-10-08T05:04:32.614Z,100533.64
2022-10-08T05:07:01.789Z,100530.90
2022-10-08T05:09:33.646Z,100526.09
2022-10-08T05:12:02.476Z,100525.89
2022-10-08T05:14:31.301Z,100525.91
2022-10-08T05:17:00.299Z,100520.89
2022-10-08T05:19:31.947Z,100515.66
2022-10-08T05:22:01.256Z,100523.72
2022-10-08T05:24:40.839Z,100530.51
2022-10-08T05:27:14.494Z,100529.96
2022-10-08T05:29:46.320Z,100532.38
2022-10-08T05:32:15.505Z,100534.15
2022-10-08T05:34:47.218Z,100537.20
2022-10-08T05:37:23.053Z,100538.58
2022-10-08T05:39:56.750Z,100539.63
2022-10-08T05:42:25.684Z,100540.41
2022-10-08T05:45:00.147Z,100539.00
2022-10-08T05:47:31.991Z,100537.31
2022-10-08T05:50:02.408Z,100536.83
2022-10-08T05:52:33.640Z,100538.90
2022-10-08T05:55:02.950Z,100535.96
2022-10-08T05:57:32.213Z,100531.36
2022-10-08T06:00:05.545Z,100529.75
2022-10-08T06:02:50.902Z,100530.48
2022-10-08T06:05:21.569Z,100529.40
2022-10-08T06:07:53.077Z,100532.59
2022-10-08T06:10:28.287Z,100536.58
2022-10-08T06:13:00.257Z,100537.12
2022-10-08T06:15:38.440Z,100534.61
2022-10-08T06:18:19.779Z,100536.27
2022-10-08T06:20:54.479Z,100538.74
2022-10-08T06:23:36.131Z,100538.42
2022-10-08T06:26:09.951Z,100540.77
2022-10-08T06:28:44.485Z,100538.00
2022-10-08T06:31:30.879Z,100543.66
2022-10-08T06:34:24.839Z,100546.64
2022-10-08T06:37:08.619Z,100549.83
2022-10-08T06:39:44.905Z,100547.25
2022-10-08T06:42:20.377Z,100547.06
2022-10-08T06:44:49.533Z,100547.46
2022-10-08T06:47:31.196Z,100549.66
2022-10-08T06:50:05.323Z,100550.39
2022-10-08T06:52:35.518Z,100548.63
2022-10-08T06:55:11.294Z,100555.21
2022-10-08T06:57:52.931Z,100556.02
2022-10-08T07:00:37.950Z,100556.54
2022-10-08T07:03:10.630Z,100550.96
2022-10-08T07:05:39.848Z,100544.19
2022-10-08T07:08:09.058Z,100541.46
2022-10-08T07:10:37.809Z,100545.42
2022-10-08T07:13:06.685Z,100547.45
2022-10-08T07:15:35.611Z,100545.45
2022-10-08T07:18:12.325Z,100538.32
2022-10-08T07:20:45.880Z,100535.46
2022-10-08T07:23:34.128Z,100531.73
2022-10-08T07:26:31.411Z,100532.20
2022-10-08T07:29:05.653Z,100529.31
2022-10-08T07:31:37.589Z,100528.77
2022-10-08T07:34:13.733Z,100527.80
2022-10-08T07:36:43.279Z,100529.91
2022-10-08T07:39:18.553Z,100524.93
2022-10-08T07:41:56.790Z,100530.02
2022-10-08T07:44:29.638Z,100528.92
2022-10-08T07:46:58.513Z,100526.95
2022-10-08T07:49:38.776Z,100525.10
2022-10-08T07:52:11.774Z,100525.55
2022-10-08T07:54:49.372Z,100525.68
2022-10-08T07:57:35.233Z,100526.64
2022-10-08T08:00:30.632Z,100523.05
2022-10-08T08:03:18.875Z,100522.25
2022-10-08T08:06:01.559Z,100517.49
2022-10-08T08:08:45.936Z,100523.39
2022-10-08T08:11:28.712Z,100521.96
2022-10-08T08:14:07.777Z,100522.50
2022-10-08T08:16:53.194Z,100524.55
2022-10-08T08:19:28.143Z,100525.34
2022-10-08T08:22:01.181Z,100518.65
2022-10-08T08:24:33.192Z,100519.14
2022-10-08T08:27:03.848Z,100521.88
2022-10-08T08:29:39.021Z,100525.15
2022-10-08T08:32:10.550Z,100521.84
2022-10-08T08:34:40.664Z,100515.70
2022-10-08T08:37:09.934Z,100510.95
2022-10-08T08:39:41.617Z,100509.55
2022-10-08T08:42:44.216Z,100514.24
2022-10-08T08:45:48.774Z,100510.13
2022-10-08T08:48:28.574Z,100513.91
2022-10-08T08:50:59.667Z,100509.64
2022-10-08T08:53:31.547Z,100513.07
2022-10-08T08:56:06.822Z,100509.70
2022-10-08T08:59:06.177Z,100512.30
2022-10-08T09:01:43.537Z,100514.05
2022-10-08T09:04:31.070Z,100512.77
2022-10-08T09:07:02.164Z,100513.11
2022-10-08T09:09:38.224Z,100514.61
2022-10-08T09:12:31.489Z,100520.31
2022-10-08T09:15:01.927Z,100521.08
2022-10-08T09:17:39.374Z,100519.77
2022-10-08T09:20:15.448Z,100516.31
2022-10-08T09:22:46.045Z,100516.40
2022-10-08T09:25:22.183Z,100516.92
2022-10-08T09:27:52.747Z,100515.73
2022-10-08T09:30:25.157Z,100514.14
2022-10-08T09:33:04.398Z,100516.71
2022-10-08T09:35:44.163Z,100514.48
2022-10-08T09:38:32.395Z,100513.86
2022-10-08T09:41:20.662Z,100513.27
2022-10-08T09:44:20.156Z,100510.05
2022-10-08T09:47:06.446Z,100509.83
2022-10-08T09:49:39.766Z,100508.83
2022-10-08T09:52:26.226Z,100507.52
2022-10-08T09:55:09.248Z,100508.80
2022-10-08T09:57:48.335Z,100507.40
2022-10-08T10:00:32.480Z,100504.57
2022-10-08T10:03:18.319Z,100495.55
2022-10-08T10:05:54.275Z,100499.08
2022-10-08T10:08:49.687Z,100498.06
2022-10-08T10:11:54.531Z,100493.63
2022-10-08T10:14:55.473Z,100492.25
2022-10-08T10:17:43.008Z,100496.77
2022-10-08T10:20:29.900Z,100494.63
2022-10-08T10:23:12.447Z,100495.77
2022-10-08T10:26:16.633Z,100497.91
2022-10-08T10:28:54.009Z,100504.28
2022-10-08T10:31:29.294Z,100504.55
2022-10-08T10:34:07.561Z,100503.83
2022-10-08T10:36:49.290Z,100506.18
2022-10-08T10:39:45.481Z,100508.95
2022-10-08T10:42:44.082Z,100508.25
2022-10-08T10:45:28.115Z,100511.83
2022-10-08T10:47:58.032Z,100507.88
2022-10-08T10:50:43.213Z,100505.59
2022-10-08T10:53:30.962Z,100508.71
2022-10-08T10:56:21.084Z,100506.36
2022-10-08T10:59:40.110Z,100500.40
2022-10-08T11:02:34.283Z,100505.42
2022-10-08T11:05:27.718Z,100508.38
2022-10-08T11:08:58.694Z,100508.70
2022-10-08T11:11:48.918Z,100509.23
2022-10-08T11:14:48.383Z,100505.50
2022-10-08T11:17:31.020Z,100499.50
2022-10-08T11:20:22.115Z,100495.89
2022-10-08T11:24:20.734Z,100497.71
2022-10-08T11:27:27.291Z,100491.62
2022-10-08T11:30:14.448Z,100483.55
2022-10-08T11:32:53.535Z,100485.11
2022-10-08T11:42:06.339Z,100472.77
2022-10-08T11:44:37.333Z,100467.89
2022-10-08T11:47:41.674Z,100466.20
2022-10-08T11:50:37.132Z,100467.23
2022-10-08T11:53:22.779Z,100462.59
2022-10-08T11:56:10.924Z,100460.14
2022-10-08T11:58:57.465Z,100456.27
2022-10-08T12:01:26.267Z,100457.02
2022-10-08T12:04:09.050Z,100450.91
2022-10-08T12:06:38.032Z,100440.77
2022-10-08T12:09:21.268Z,100437.07
2022-10-08T12:11:54.512Z,100430.71
2022-10-08T12:14:23.277Z,100434.73
2022-10-08T12:16:55.202Z,100438.05
2022-10-08T12:19:33.448Z,100442.88
2022-10-08T12:22:04.598Z,100449.63
2022-10-08T12:24:39.607Z,100452.53
2022-10-08T12:27:17.345Z,100453.09
2022-10-08T12:30:16.949Z,100451.26
2022-10-08T12:32:45.972Z,100447.20
2022-10-08T12:35:47.225Z,100450.53
2022-10-08T12:38:21.457Z,100470.63
2022-10-08T12:41:04.318Z,100469.96
2022-10-08T12:43:47.154Z,100464.00
2022-10-08T12:46:56.430Z,100466.66
2022-10-08T12:50:26.718Z,100467.19
2022-10-08T12:52:56.216Z,100466.95
2022-10-08T12:55:25.910Z,100463.80
2022-10-08T12:57:55.126Z,100462.36
2022-10-08T13:00:30.882Z,100467.77
2022-10-08T13:03:05.991Z,100467.61
2022-10-08T13:05:39.786Z,100468.41
2022-10-08T13:08:42.740Z,100470.37
2022-10-08T13:11:15.488Z,100473.19
2022-10-08T13:13:51.121Z,100475.47
2022-10-08T13:16:29.103Z,100479.26
2022-10-08T13:18:58.882Z,100481.98
2022-10-08T13:21:34.334Z,100484.27
2022-10-08T13:24:12.263Z,100483.95
2022-10-08T13:26:52.526Z,100485.10
2022-10-08T13:29:21.802Z,100483.98
2022-10-08T13:32:03.714Z,100480.73
2022-10-08T13:34:43.729Z,100480.79
2022-10-08T13:37:21.817Z,100480.45
2022-10-08T13:40:12.924Z,100480.17
2022-10-08T13:42:55.496Z,100481.55
2022-10-08T13:45:36.927Z,100484.51
2022-10-08T13:48:13.894Z,100488.57
2022-10-08T13:50:56.746Z,100482.61
2022-10-08T13:53:27.175Z,100483.30
2022-10-08T13:56:08.409Z,100484.30
2022-10-08T13:58:37.761Z,100481.10
2022-10-08T14:01:13.678Z,100478.34
2022-10-08T14:03:44.885Z,100476.73
2022-10-08T14:06:25.306Z,100481.98
2022-10-08T14:09:03.344Z,100483.75
2022-10-08T14:11:35.030Z,100485.19
2022-10-08T14:14:04.032Z,100485.48
2022-10-08T14:16:33.199Z,100492.30
2022-10-08T14:19:03.630Z,100498.02
2022-10-08T14:21:33.376Z,100497.88
2022-10-08T14:24:03.068Z,100490.79
2022-10-08T14:26:36.210Z,100485.05
2022-10-08T14:29:18.004Z,100484.23
2022-10-08T14:31:47.191Z,100480.48
2022-10-08T14:34:16.159Z,100481.35
2022-10-08T14:36:50.302Z,100480.56
2022-10-08T14:39:19.338Z,100484.30
2022-10-08T14:41:48.926Z,100482.56
2022-10-08T14:44:22.280Z,100483.88
2022-10-08T14:46:55.566Z,100486.01
2022-10-08T14:49:24.608Z,100485.44
2022-10-08T14:51:53.509Z,100489.56
2022-10-08T14:54:22.626Z,100488.59
2022-10-08T14:56:51.890Z,100487.60
2022-10-08T14:59:39.063Z,100485.73
2022-10-08T15:02:11.911Z,100483.94
2022-10-08T15:04:40.836Z,100485.80
2022-10-08T15:07:09.802Z,100479.42
2022-10-08T15:09:40.783Z,100472.53
2022-10-08T15:12:09.564Z,100472.83
2022-10-08T15:14:38.645Z,100474.46
2022-10-08T15:17:07.892Z,100473.31
2022-10-08T15:19:36.651Z,100477.50
2022-10-08T15:22:05.492Z,100482.73
2022-10-08T15:24:34.399Z,100486.07
2022-10-08T15:27:03.518Z,100491.38
2022-10-08T15:29:32.533Z,100493.11
2022-10-08T15:32:04.087Z,100494.73
2022-10-08T15:34:33.690Z,100497.36
2022-10-08T15:37:02.959Z,100500.90
2022-10-08T15:39:35.614Z,100502.84
2022-10-08T15:42:05.749Z,100507.71
2022-10-08T15:44:36.618Z,100510.05
2022-10-08T15:47:08.001Z,100512.47
2022-10-08T15:49:42.608Z,100509.81
2022-10-08T15:52:21.275Z,100512.15
2022-10-08T15:54:49.949Z,100508.68
2022-10-08T15:57:19.324Z,100513.52
2022-10-08T15:59:48.179Z,100518.31
2022-10-08T16:02:18.271Z,100515.37
2022-10-08T16:04:48.042Z,100516.27
2022-10-08T16:07:17.340Z,100525.14
2022-10-08T16:09:46.040Z,100530.52
2022-10-08T16:12:14.971Z,100529.63
2022-10-08T16:14:44.083Z,100536.84
2022-10-08T16:17:13.353Z,100539.98
2022-10-08T16:19:42.479Z,100539.95
2022-10-08T16:22:11.297Z,100542.11
2022-10-08T16:24:40.293Z,100546.05
2022-10-08T16:27:09.437Z,100548.75
2022-10-08T16:29:38.684Z,100551.10
2022-10-08T16:32:07.512Z,100556.45
2022-10-08T16:34:36.313Z,100561.05
2022-10-08T16:37:05.234Z,100566.17
2022-10-08T16:39:34.073Z,100564.02
2022-10-08T16:42:03.008Z,100563.33
2022-10-08T16:44:31.989Z,100564.30
2022-10-08T16:47:01.029Z,100571.22
2022-10-08T16:49:30.327Z,100573.88
2022-10-08T16:52:08.693Z,100578.66
2022-10-08T16:54:38.284Z,100584.53
2022-10-08T16:57:10.444Z,100593.17
2022-10-08T16:59:39.580Z,100599.02
2022-10-08T17:02:10.726Z,100598.09
2022-10-08T17:04:39.989Z,100599.89
2022-10-08T17:07:09.049Z,100599.93
2022-10-08T17:09:38.081Z,100609.00
2022-10-08T17:12:09.950Z,100616.59
2022-10-08T17:14:38.817Z,100625.62
2022-10-08T17:17:08.119Z,100631.19
2022-10-08T17:19:37.187Z,100635.41
2022-10-08T17:22:06.286Z,100640.95
2022-10-08T17:24:42.276Z,100643.11
2022-10-08T17:27:13.577Z,100636.32
2022-10-08T17:29:43.255Z,100635.05
2022-10-08T17:32:12.268Z,100635.19
2022-10-08T17:34:41.320Z,100639.63
2022-10-08T17:37:10.908Z,100651.71
2022-10-08T17:39:40.057Z,100652.40
2022-10-08T17:42:09.215Z,100650.95
2022-10-08T17:44:39.691Z,100648.27
2022-10-08T17:47:08.835Z,100641.93
2022-10-08T17:49:37.870Z,100638.52
2022-10-08T17:52:07.629Z,100635.66
2022-10-08T17:54:37.064Z,100639.73
2022-10-08T17:57:06.161Z,100651.88
2022-10-08T17:59:35.052Z,100655.27
2022-10-08T18:02:04.179Z,100662.94
2022-10-08T18:04:33.623Z,100669.97
2022-10-08T18:07:09.060Z,100672.70
2022-10-08T18:09:40.958Z,100670.21
2022-10-08T18:12:12.384Z,100669.80
2022-10-08T18:14:41.408Z,100667.45
2022-10-08T18:17:23.593Z,100673.91
2022-10-08T18:19:52.675Z,100678.75
2022-10-08T18:22:23.263Z,100675.86
2022-10-08T18:24:52.736Z,100682.76
2022-10-08T18:27:21.867Z,100690.11
2022-10-08T18:29:53.821Z,100692.69
2022-10-08T18:32:22.978Z,100692.35
2022-10-08T18:34:51.988Z,100695.88
2022-10-08T18:37:21.062Z,100697.49
2022-10-08T18:39:51.558Z,100704.77
2022-10-08T18:42:20.688Z,100708.95
2022-10-08T18:44:49.617Z,100714.90
2022-10-08T18:47:19.572Z,100713.66
2022-10-08T18:49:48.371Z,100714.77
2022-10-08T18:52:21.370Z,100714.61
2022-10-08T18:54:53.500Z,100719.82
2022-10-08T18:57:22.908Z,100720.58
2022-10-08T18:59:51.723Z,100722.25
2022-10-08T19:02:20.946Z,100719.64
2022-10-08T19:04:50.369Z,100722.31
2022-10-08T19:07:19.380Z,100733.41
2022-10-08T19:09:48.328Z,100745.75
2022-10-08T19:12:17.590Z,100752.80
2022-10-08T19:14:51.078Z,100757.25
2022-10-08T19:17:22.542Z,100765.70
2022-10-08T19:19:51.808Z,100775.98
2022-10-08T19:22:21.356Z,100782.84
2022-10-08T19:24:51.087Z,100788.72
2022-10-08T19:27:22.241Z,100792.86
2022-10-08T19:29:51.751Z,100792.21
2022-10-08T19:32:20.946Z,100795.20
2022-10-08T19:34:49.883Z,100801.05
2022-10-08T19:37:19.254Z,100803.86
2022-10-08T19:39:48.961Z,100802.71
2022-10-08T19:42:18.039Z,100806.61
2022-10-08T19:44:46.952Z,100806.27
2022-10-08T19:47:15.792Z,100806.64
2022-10-08T19:49:47.786Z,100813.52
2022-10-08T19:52:28.682Z,100819.89
2022-10-08T19:54:59.190Z,100823.90
2022-10-08T19:57:29.505Z,100824.55
2022-10-08T20:00:01.119Z,100822.98
2022-10-08T20:02:37.761Z,100823.80
2022-10-08T20:05:07.883Z,100833.34
2022-10-08T20:07:37.134Z,100838.56
2022-10-08T20:10:07.107Z,100846.51
2022-10-08T20:12:36.304Z,100849.60
2022-10-08T20:15:11.117Z,100852.05
2022-10-08T20:17:39.956Z,100858.90
2022-10-08T20:20:31.214Z,100861.52
2022-10-08T20:22:58.809Z,100867.48
2022-10-08T20:25:30.740Z,100870.00
2022-10-08T20:27:59.777Z,100870.14
2022-10-08T20:30:29.489Z,100871.34
2022-10-08T20:32:58.248Z,100872.49
2022-10-08T20:35:27.089Z,100874.69
2022-10-08T20:37:55.853Z,100875.00
2022-10-08T20:40:24.666Z,100876.02
2022-10-08T20:42:53.497Z,100877.46
2022-10-08T20:45:22.425Z,100875.02
2022-10-08T20:47:51.475Z,100876.08
2022-10-08T20:50:20.297Z,100878.48
2022-10-08T20:52:51.327Z,100878.27
2022-10-08T20:55:20.261Z,100883.63
2022-10-08T20:57:49.069Z,100887.91
2022-10-08T21:00:18.055Z,100885.32
2022-10-08T21:02:47.101Z,100890.48
2022-10-08T21:05:16.110Z,100892.45
2022-10-08T21:07:46.011Z,100891.75
2022-10-08T21:10:14.926Z,100891.88
2022-10-08T21:12:43.934Z,100894.13
2022-10-08T21:15:12.680Z,100894.83
2022-10-08T21:17:41.472Z,100897.27
2022-10-08T21:20:10.177Z,100896.08
2022-10-08T21:22:38.933Z,100896.77
2022-10-08T21:25:11.089Z,100896.97
2022-10-08T21:27:40.355Z,100897.39
2022-10-08T21:30:09.982Z,100900.73
2022-10-08T21:32:38.771Z,100901.27
2022-10-08T21:35:08.216Z,100899.31
2022-10-08T21:37:36.959Z,100899.77
2022-10-08T21:40:09.101Z,100901.80
2022-10-08T21:42:42.009Z,100902.63
2022-10-08T21:45:14.172Z,100909.23
2022-10-08T21:47:42.983Z,100911.66
2022-10-08T21:50:11.804Z,100915.61
2022-10-08T21:52:40.647Z,100926.40
2022-10-08T21:55:09.571Z,100930.03
2022-10-08T21:57:38.263Z,100926.67
2022-10-08T22:00:11.914Z,100924.70
2022-10-08T22:02:43.187Z,100926.64
2022-10-08T22:05:12.157Z,100925.36
2022-10-08T22:07:41.010Z,100931.38
2022-10-08T22:10:09.825Z,100936.63
2022-10-08T22:12:38.682Z,100939.52
2022-10-08T22:15:08.141Z,100938.75
2022-10-08T22:17:36.886Z,100937.86
2022-10-08T22:20:06.096Z,100938.90
2022-10-08T22:22:35.122Z,100942.47
2022-10-08T22:25:04.404Z,100947.86
2022-10-08T22:27:33.533Z,100948.71
2022-10-08T22:30:02.476Z,100951.21
2022-10-08T22:32:31.394Z,100959.79
2022-10-08T22:35:06.539Z,100964.88
2022-10-08T22:37:35.495Z,100966.13
2022-10-08T22:40:04.700Z,100966.10
2022-10-08T22:42:36.445Z,100961.19
2022-10-08T22:45:06.822Z,100961.09
2022-10-08T22:47:35.691Z,100960.10
2022-10-08T22:50:06.007Z,100959.52
2022-10-08T22:52:34.941Z,100963.83
2022-10-08T22:55:04.095Z,100966.33
2022-10-08T22:57:32.934Z,100969.71
2022-10-08T23:00:01.941Z,100972.84
2022-10-08T23:02:30.939Z,100975.94
2022-10-08T23:04:59.907Z,100981.95
2022-10-08T23:07:28.771Z,100988.36
2022-10-08T23:10:00.201Z,100990.76
2022-10-08T23:12:29.242Z,100992.26
2022-10-08T23:14:58.146Z,100991.33
2022-10-08T23:17:27.019Z,100996.29
2022-10-08T23:19:55.908Z,100997.27
2022-10-08T23:22:25.284Z,101002.87
2022-10-08T23:24:54.164Z,101003.61
2022-10-08T23:27:25.219Z,101009.24
2022-10-08T23:29:56.250Z,101011.74
2022-10-08T23:32:25.138Z,101013.97
2022-10-08T23:34:54.094Z,101016.49
2022-10-08T23:37:35.177Z,101015.70
2022-10-08T23:40:06.058Z,101017.05
2022-10-08T23:42:38.382Z,101012.42
2022-10-08T23:45:08.039Z,101014.33
2022-10-08T23:47:37.657Z,101015.06
2022-10-08T23:50:10.538Z,101018.23
2022-10-08T23:52:39.530Z,101023.86
2022-10-08T23:55:09.007Z,101025.84
2022-10-08T23:57:37.919Z,101028.20
